createdAt,value
2022-08-22T00:02:14.261Z,99097.38
2022-08-22T00:03:02.741Z,99179.66
2022-08-22T00:04:53.358Z,99111.44
2022-08-22T00:07:45.067Z,99107.91
2022-08-22T00:10:25.031Z,99107.09
2022-08-22T00:13:14.943Z,99111.31
2022-08-22T00:15:45.055Z,99100.84
2022-08-22T00:18:32.382Z,99102.53
2022-08-22T00:21:13.674Z,99106.97
2022-08-22T00:23:50.850Z,99104.13
2022-08-22T00:26:43.312Z,99096.31
2022-08-22T00:29:19.635Z,99112.22
2022-08-22T00:31:47.930Z,99106.06
2022-08-22T00:34:24.391Z,99107.94
2022-08-22T00:37:03.094Z,99106.94
2022-08-22T00:39:55.255Z,99106.72
2022-08-22T00:42:35.249Z,99112.00
2022-08-22T00:45:21.173Z,99107.78
2022-08-22T00:48:03.913Z,99113.00
2022-08-22T00:51:08.955Z,99113.09
2022-08-22T00:53:58.428Z,99116.56
2022-08-22T00:56:31.946Z,99121.72
2022-08-22T00:59:23.753Z,99118.22
2022-08-22T01:02:11.200Z,99118.31
2022-08-22T01:05:05.295Z,99116.72
2022-08-22T01:08:05.401Z,99116.69
2022-08-22T01:10:42.782Z,99120.22
2022-08-22T01:13:29.020Z,99125.28
2022-08-22T01:16:10.430Z,99113.81
2022-08-22T01:18:48.744Z,99114.59
2022-08-22T01:21:46.510Z,99119.28
2022-08-22T01:24:35.867Z,99103.31
2022-08-22T01:27:38.021Z,99107.88
2022-08-22T01:30:16.488Z,99107.03
2022-08-22T01:33:03.479Z,99111.41
2022-08-22T01:35:48.287Z,99107.91
2022-08-22T01:38:21.048Z,99105.25
2022-08-22T01:41:06.392Z,99108.63
2022-08-22T01:44:00.058Z,99106.16
2022-08-22T01:46:34.632Z,99113.00
2022-08-22T01:49:30.218Z,99112.28
2022-08-22T01:52:11.944Z,99109.53
2022-08-22T01:54:59.551Z,99108.66
2022-08-22T01:57:27.557Z,99114.06
2022-08-22T01:59:58.289Z,99109.66
2022-08-22T02:02:56.772Z,99103.59
2022-08-22T02:05:37.337Z,99104.28
2022-08-22T02:08:23.989Z,99100.81
2022-08-22T02:11:03.706Z,99109.66
2022-08-22T02:13:54.733Z,99111.47
2022-08-22T02:16:27.867Z,99102.63
2022-08-22T02:19:14.986Z,99100.09
2022-08-22T02:22:12.268Z,99106.12
2022-08-22T02:25:00.947Z,99101.84
2022-08-22T02:27:46.935Z,99094.72
2022-08-22T02:30:18.169Z,99097.44
2022-08-22T02:32:57.176Z,99100.03
2022-08-22T02:35:33.276Z,99086.09
2022-08-22T02:38:28.260Z,99085.16
2022-08-22T02:41:07.119Z,99086.91
2022-08-22T02:43:49.575Z,99087.78
2022-08-22T02:46:30.463Z,99088.66
2022-08-22T02:49:01.148Z,99089.56
2022-08-22T02:52:04.350Z,99084.19
2022-08-22T02:54:45.683Z,99079.81
2022-08-22T02:57:25.527Z,99078.94
2022-08-22T03:00:30.837Z,99076.31
2022-08-22T03:03:03.345Z,99076.28
2022-08-22T03:05:36.912Z,99075.44
2022-08-22T03:08:24.383Z,99078.94
2022-08-22T03:11:18.012Z,99074.56
2022-08-22T03:14:01.609Z,99081.63
2022-08-22T03:16:45.077Z,99087.78
2022-08-22T03:19:18.821Z,99085.09
2022-08-22T03:21:57.378Z,99090.19
2022-08-22T03:24:32.087Z,99095.69
2022-08-22T03:27:06.431Z,99086.72
2022-08-22T03:29:40.526Z,99097.47
2022-08-22T03:32:22.520Z,99093.09
2022-08-22T03:35:19.634Z,99100.97
2022-08-22T03:37:47.788Z,99096.47
2022-08-22T03:40:31.479Z,99107.97
2022-08-22T03:43:05.663Z,99111.41
2022-08-22T03:45:44.025Z,99104.47
2022-08-22T03:48:17.744Z,99107.97
2022-08-22T03:50:54.582Z,99109.69
2022-08-22T03:53:51.848Z,99105.28
2022-08-22T03:56:25.330Z,99110.47
2022-08-22T03:59:26.155Z,99119.28
2022-08-22T04:02:43.287Z,99116.69
2022-08-22T04:05:40.621Z,99109.66
2022-08-22T04:08:29.758Z,99114.94
2022-08-22T04:11:16.447Z,99119.25
2022-08-22T04:14:16.828Z,99120.12
2022-08-22T04:17:18.303Z,99116.53
2022-08-22T04:20:21.176Z,99115.75
2022-08-22T04:23:07.936Z,99125.47
2022-08-22T04:25:41.283Z,99121.97
2022-08-22T04:28:29.212Z,99123.72
2022-08-22T04:31:17.328Z,99123.72
2022-08-22T04:33:49.963Z,99125.41
2022-08-22T04:36:30.981Z,99119.97
2022-08-22T04:39:04.987Z,99112.81
2022-08-22T04:41:48.191Z,99123.87
2022-08-22T04:44:31.986Z,99125.97
2022-08-22T04:47:05.168Z,99122.44
2022-08-22T04:49:57.781Z,99130.94
2022-08-22T04:53:10.553Z,99134.59
2022-08-22T04:56:07.356Z,99130.16
2022-08-22T04:58:48.987Z,99135.66
2022-08-22T05:01:40.959Z,99131.16
2022-08-22T05:04:13.230Z,99133.81
2022-08-22T05:06:44.410Z,99131.16
2022-08-22T05:09:16.500Z,99135.06
2022-08-22T05:11:45.927Z,99140.16
2022-08-22T05:14:36.834Z,99133.31
2022-08-22T05:17:07.759Z,99138.13
2022-08-22T05:19:40.025Z,99146.28
2022-08-22T05:22:15.189Z,99137.66
2022-08-22T05:24:45.105Z,99140.59
2022-08-22T05:27:20.607Z,99144.62
2022-08-22T05:29:58.176Z,99144.44
2022-08-22T05:32:32.327Z,99148.78
2022-08-22T05:35:01.871Z,99154.06
2022-08-22T05:37:43.565Z,99157.00
2022-08-22T05:40:22.016Z,99153.81
2022-08-22T05:42:49.812Z,99162.16
2022-08-22T05:45:18.288Z,99164.69
2022-08-22T05:47:52.211Z,99164.50
2022-08-22T05:50:50.416Z,99154.66
2022-08-22T05:53:41.580Z,99166.00
2022-08-22T05:56:10.995Z,99169.78
2022-08-22T05:58:54.886Z,99174.66
2022-08-22T06:02:00.777Z,99171.94
2022-08-22T06:04:59.411Z,99179.38
2022-08-22T06:07:35.568Z,99180.69
2022-08-22T06:10:06.027Z,99173.19
2022-08-22T06:12:37.278Z,99182.34
2022-08-22T06:15:23.068Z,99178.63
2022-08-22T06:17:57.861Z,99184.19
2022-08-22T06:20:36.557Z,99174.69
2022-08-22T06:23:05.920Z,99180.38
2022-08-22T06:25:37.730Z,99179.66
2022-08-22T06:28:08.392Z,99181.62
2022-08-22T06:30:37.334Z,99180.72
2022-08-22T06:33:12.380Z,99184.47
2022-08-22T06:36:03.427Z,99191.22
2022-08-22T06:38:33.597Z,99183.97
2022-08-22T06:41:05.671Z,99190.94
2022-08-22T06:43:38.755Z,99193.72
2022-08-22T06:46:07.032Z,99199.13
2022-08-22T06:48:35.453Z,99198.06
2022-08-22T06:51:06.469Z,99193.72
2022-08-22T06:53:47.883Z,99202.19
2022-08-22T06:56:21.878Z,99204.09
2022-08-22T06:58:50.962Z,99187.25
2022-08-22T07:01:24.281Z,99195.69
2022-08-22T07:03:59.591Z,99191.63
2022-08-22T07:06:39.403Z,99185.66
2022-08-22T07:09:16.357Z,99188.97
2022-08-22T07:11:43.911Z,99186.13
2022-08-22T07:14:15.881Z,99178.69
2022-08-22T07:16:52.134Z,99192.37
2022-08-22T07:19:36.961Z,99191.13
2022-08-22T07:22:15.795Z,99192.94
2022-08-22T07:24:48.297Z,99193.75
2022-08-22T07:27:50.078Z,99195.38
2022-08-22T07:30:28.066Z,99199.72
2022-08-22T07:32:55.720Z,99189.66
2022-08-22T07:35:41.692Z,99193.37
2022-08-22T07:38:27.555Z,99193.00
2022-08-22T07:41:17.991Z,99194.78
2022-08-22T07:43:49.034Z,99198.47
2022-08-22T07:46:30.686Z,99202.25
2022-08-22T07:49:10.358Z,99202.53
2022-08-22T07:51:47.566Z,99206.78
2022-08-22T07:54:21.430Z,99203.13
2022-08-22T07:57:05.361Z,99210.03
2022-08-22T07:59:35.138Z,99198.44
2022-08-22T08:02:06.278Z,99211.47
2022-08-22T08:04:40.002Z,99198.84
2022-08-22T08:07:11.922Z,99197.28
2022-08-22T08:09:44.822Z,99193.63
2022-08-22T08:12:12.968Z,99204.22
2022-08-22T08:14:42.606Z,99204.38
2022-08-22T08:17:24.094Z,99205.06
2022-08-22T08:19:52.303Z,99204.59
2022-08-22T08:22:26.458Z,99206.25
2022-08-22T08:24:56.637Z,99201.56
2022-08-22T08:27:50.279Z,99201.69
2022-08-22T08:30:34.535Z,99204.88
2022-08-22T08:33:25.563Z,99200.63
2022-08-22T08:36:34.371Z,99205.94
2022-08-22T08:39:23.659Z,99207.91
2022-08-22T08:42:55.103Z,99202.91
2022-08-22T08:46:10.794Z,99203.09
2022-08-22T08:48:48.648Z,99202.56
2022-08-22T08:51:45.166Z,99203.84
2022-08-22T08:54:43.515Z,99204.31
2022-08-22T08:57:38.464Z,99197.97
2022-08-22T09:00:21.092Z,99200.37
2022-08-22T09:03:11.432Z,99212.47
2022-08-22T09:05:52.844Z,99209.44
2022-08-22T09:08:45.509Z,99205.72
2022-08-22T09:11:54.888Z,99208.53
2022-08-22T09:14:40.354Z,99210.47
2022-08-22T09:17:30.947Z,99207.97
2022-08-22T09:20:17.985Z,99210.97
2022-08-22T09:23:14.660Z,99210.16
2022-08-22T09:25:54.779Z,99204.75
2022-08-22T09:28:32.344Z,99214.91
2022-08-22T09:31:32.784Z,99206.41
2022-08-22T09:34:23.844Z,99208.63
2022-08-22T09:37:25.413Z,99206.78
2022-08-22T09:40:03.519Z,99207.94
2022-08-22T09:42:44.891Z,99205.50
2022-08-22T09:45:45.435Z,99209.75
2022-08-22T09:48:49.558Z,99205.25
2022-08-22T09:51:34.718Z,99204.97
2022-08-22T09:54:40.218Z,99207.47
2022-08-22T09:57:40.515Z,99204.69
2022-08-22T10:00:22.148Z,99209.19
2022-08-22T10:03:28.839Z,99208.03
2022-08-22T10:06:01.513Z,99199.38
2022-08-22T10:08:48.350Z,99214.22
2022-08-22T10:11:28.831Z,99207.09
2022-08-22T10:14:09.003Z,99208.44
2022-08-22T10:16:58.160Z,99209.59
2022-08-22T10:19:35.700Z,99217.91
2022-08-22T10:22:05.528Z,99211.53
2022-08-22T10:24:45.535Z,99214.03
2022-08-22T10:27:17.573Z,99206.06
2022-08-22T10:30:10.840Z,99212.12
2022-08-22T10:33:00.102Z,99213.03
2022-08-22T10:35:33.666Z,99209.72
2022-08-22T10:38:21.457Z,99211.22
2022-08-22T10:40:56.038Z,99212.66
2022-08-22T10:43:40.872Z,99216.19
2022-08-22T10:46:14.372Z,99210.81
2022-08-22T10:48:49.040Z,99211.88
2022-08-22T10:51:32.713Z,99212.00
2022-08-22T10:54:19.931Z,99219.94
2022-08-22T10:57:09.500Z,99216.22
2022-08-22T10:59:51.031Z,99209.94
2022-08-22T11:03:00.878Z,99206.75
2022-08-22T11:05:36.826Z,99211.50
2022-08-22T11:08:11.586Z,99193.28
2022-08-22T11:10:57.573Z,99199.91
2022-08-22T11:14:06.800Z,99200.37
2022-08-22T11:17:23.654Z,99198.41
2022-08-22T11:19:59.437Z,99193.81
2022-08-22T11:22:35.375Z,99196.06
2022-08-22T11:25:38.383Z,99200.66
2022-08-22T11:28:12.555Z,99203.34
2022-08-22T11:31:00.948Z,99199.34
2022-08-22T11:33:46.467Z,99198.47
2022-08-22T11:36:36.229Z,99199.72
2022-08-22T11:39:22.883Z,99199.94
2022-08-22T11:42:13.741Z,99193.22
2022-08-22T11:44:59.763Z,99194.34
2022-08-22T11:47:34.891Z,99196.13
2022-08-22T11:50:21.568Z,99200.78
2022-08-22T11:53:17.069Z,99197.72
2022-08-22T11:56:17.049Z,99191.31
2022-08-22T11:58:51.340Z,99193.81
2022-08-22T12:01:23.880Z,99192.25
2022-08-22T12:03:58.549Z,99188.66
2022-08-22T12:06:28.895Z,99190.47
2022-08-22T12:09:05.575Z,99193.53
2022-08-22T12:11:45.071Z,99186.50
2022-08-22T12:14:30.379Z,99191.31
2022-08-22T12:17:55.932Z,99187.34
2022-08-22T12:20:32.300Z,99178.50
2022-08-22T12:23:06.063Z,99181.66
2022-08-22T12:26:00.155Z,99184.59
2022-08-22T12:28:49.763Z,99187.09
2022-08-22T12:31:36.558Z,99183.97
2022-08-22T12:34:23.545Z,99179.31
2022-08-22T12:37:52.257Z,99183.06
2022-08-22T12:40:36.426Z,99187.16
2022-08-22T12:43:07.368Z,99178.00
2022-08-22T12:46:12.821Z,99178.87
2022-08-22T12:49:07.499Z,99173.59
2022-08-22T12:52:08.602Z,99175.75
2022-08-22T12:54:50.071Z,99179.16
2022-08-22T12:57:27.068Z,99170.59
2022-08-22T13:00:18.059Z,99175.34
2022-08-22T13:02:54.360Z,99181.53
2022-08-22T13:05:28.008Z,99182.88
2022-08-22T13:08:04.397Z,99182.62
2022-08-22T13:10:40.564Z,99182.97
2022-08-22T13:13:12.741Z,99187.72
2022-08-22T13:15:47.121Z,99184.44
2022-08-22T13:18:30.627Z,99189.88
2022-08-22T13:21:02.113Z,99206.63
2022-08-22T13:23:34.276Z,99196.28
2022-08-22T13:26:32.954Z,99192.50
2022-08-22T13:29:26.738Z,99195.84
2022-08-22T13:32:00.317Z,99205.28
2022-08-22T13:34:44.673Z,99214.22
2022-08-22T13:37:16.419Z,99212.81
2022-08-22T13:39:47.010Z,99213.44
2022-08-22T13:42:30.492Z,99210.75
2022-08-22T13:45:04.513Z,99211.72
2022-08-22T13:47:39.607Z,99217.97
2022-08-22T13:50:19.195Z,99224.06
2022-08-22T13:53:02.268Z,99225.63
2022-08-22T13:55:38.759Z,99226.75
2022-08-22T13:58:16.823Z,99229.72
2022-08-22T14:00:58.205Z,99235.81
2022-08-22T14:03:32.469Z,99232.69
2022-08-22T14:06:32.789Z,99225.25
2022-08-22T14:08:49.206Z,99215.16
2022-08-22T14:11:27.803Z,99218.69
2022-08-22T14:14:02.194Z,99228.44
2022-08-22T14:16:33.707Z,99226.63
2022-08-22T14:19:06.853Z,99223.22
2022-08-22T14:21:40.708Z,99221.69
2022-08-22T14:24:25.686Z,99221.63
2022-08-22T14:27:14.426Z,99230.75
2022-08-22T14:29:52.821Z,99223.94
2022-08-22T14:32:22.612Z,99231.31
2022-08-22T14:35:10.649Z,99233.72
2022-08-22T14:37:47.414Z,99213.53
2022-08-22T14:40:25.699Z,99205.31
2022-08-22T14:43:09.526Z,99224.91
2022-08-22T14:45:40.459Z,99220.12
2022-08-22T14:48:30.283Z,99222.91
2022-08-22T14:51:08.601Z,99218.22
2022-08-22T14:53:38.598Z,99223.16
2022-08-22T14:56:12.439Z,99221.91
2022-08-22T14:59:01.823Z,99227.00
2022-08-22T15:01:32.712Z,99231.03
2022-08-22T15:04:03.346Z,99225.66
2022-08-22T15:06:35.955Z,99229.63
2022-08-22T15:09:35.459Z,99227.06
2022-08-22T15:12:07.386Z,99230.72
2022-08-22T15:14:37.856Z,99219.47
2022-08-22T15:17:08.521Z,99232.88
2022-08-22T15:19:41.048Z,99227.47
2022-08-22T15:22:27.552Z,99227.47
2022-08-22T15:25:12.970Z,99228.38
2022-08-22T15:27:53.172Z,99238.03
2022-08-22T15:30:44.462Z,99243.75
2022-08-22T15:33:32.924Z,99240.56
2022-08-22T15:36:27.287Z,99240.63
2022-08-22T15:39:33.948Z,99236.25
2022-08-22T15:42:02.747Z,99239.09
2022-08-22T15:44:34.400Z,99236.59
2022-08-22T15:47:10.852Z,99244.28
2022-08-22T15:49:58.418Z,99242.88
2022-08-22T15:52:30.244Z,99251.34
2022-08-22T15:55:16.590Z,99250.94
2022-08-22T15:57:52.044Z,99258.62
2022-08-22T16:00:45.639Z,99256.16
2022-08-22T16:03:28.988Z,99272.31
2022-08-22T16:05:59.566Z,99277.03
2022-08-22T16:08:51.384Z,99279.72
2022-08-22T16:11:29.558Z,99270.34
2022-08-22T16:14:21.686Z,99276.31
2022-08-22T16:16:56.727Z,99268.38
2022-08-22T16:19:27.337Z,99273.06
2022-08-22T16:21:54.683Z,99272.44
2022-08-22T16:24:22.087Z,99273.97
2022-08-22T16:26:50.145Z,99278.97
2022-08-22T16:29:41.251Z,99270.47
2022-08-22T16:32:11.244Z,99260.63
2022-08-22T16:34:38.519Z,99263.34
2022-08-22T16:37:09.019Z,99270.56
2022-08-22T16:39:38.527Z,99270.59
2022-08-22T16:42:24.335Z,99278.34
2022-08-22T16:44:56.903Z,99278.00
2022-08-22T16:47:30.539Z,99280.88
2022-08-22T16:50:19.758Z,99272.06
2022-08-22T16:53:01.894Z,99274.84
2022-08-22T16:55:29.634Z,99262.22
2022-08-22T16:58:06.124Z,99261.53
2022-08-22T17:00:57.571Z,99260.25
2022-08-22T17:03:43.799Z,99273.75
2022-08-22T17:06:50.428Z,99266.50
2022-08-22T17:09:36.415Z,99266.19
2022-08-22T17:12:25.238Z,99262.16
2022-08-22T17:15:10.850Z,99270.63
2022-08-22T17:18:00.353Z,99273.22
2022-08-22T17:20:57.178Z,99275.75
2022-08-22T17:23:46.541Z,99276.25
2022-08-22T17:26:20.477Z,99271.50
2022-08-22T17:29:09.883Z,99281.94
2022-08-22T17:31:49.273Z,99290.81
2022-08-22T17:34:29.316Z,99300.56
2022-08-22T17:37:05.659Z,99303.22
2022-08-22T17:40:01.035Z,99308.47
2022-08-22T17:42:38.272Z,99307.69
2022-08-22T17:45:20.453Z,99313.94
2022-08-22T17:48:11.215Z,99314.00
2022-08-22T17:50:46.294Z,99309.59
2022-08-22T17:53:49.335Z,99308.66
2022-08-22T17:56:31.811Z,99303.44
2022-08-22T17:59:07.934Z,99303.91
2022-08-22T18:01:49.644Z,99305.44
2022-08-22T18:04:45.665Z,99299.59
2022-08-22T18:07:14.951Z,99303.03
2022-08-22T18:09:51.534Z,99300.03
2022-08-22T18:12:34.356Z,99303.62
2022-08-22T18:15:26.875Z,99301.09
2022-08-22T18:17:59.636Z,99294.81
2022-08-22T18:20:35.039Z,99294.69
2022-08-22T18:23:21.517Z,99296.22
2022-08-22T18:26:17.803Z,99306.25
2022-08-22T18:28:53.053Z,99305.34
2022-08-22T18:31:26.964Z,99300.81
2022-08-22T18:34:10.112Z,99304.50
2022-08-22T18:36:45.707Z,99298.28
2022-08-22T18:39:25.553Z,99301.88
2022-08-22T18:42:18.030Z,99309.84
2022-08-22T18:44:45.769Z,99312.38
2022-08-22T18:47:32.003Z,99314.00
2022-08-22T18:50:02.305Z,99319.28
2022-08-22T18:52:36.019Z,99324.41
2022-08-22T18:55:23.408Z,99333.03
2022-08-22T18:57:54.421Z,99340.97
2022-08-22T19:00:48.125Z,99336.56
2022-08-22T19:03:25.252Z,99342.06
2022-08-22T19:06:21.213Z,99338.22
2022-08-22T19:09:00.766Z,99332.94
2022-08-22T19:11:37.485Z,99347.19
2022-08-22T19:14:08.480Z,99351.53
2022-08-22T19:16:57.851Z,99346.97
2022-08-22T19:20:03.161Z,99351.44
2022-08-22T19:22:36.010Z,99353.09
2022-08-22T19:25:08.872Z,99349.53
2022-08-22T19:28:04.159Z,99354.84
2022-08-22T19:30:41.816Z,99355.44
2022-08-22T19:33:20.357Z,99360.94
2022-08-22T19:36:12.567Z,99361.81
2022-08-22T19:38:51.058Z,99359.91
2022-08-22T19:41:45.679Z,99361.84
2022-08-22T19:44:19.408Z,99351.06
2022-08-22T19:47:18.930Z,99362.56
2022-08-22T19:50:22.702Z,99362.66
2022-08-22T19:53:07.520Z,99356.56
2022-08-22T19:55:38.038Z,99356.50
2022-08-22T19:59:00.196Z,99363.59
2022-08-22T20:01:39.440Z,99358.38
2022-08-22T20:04:30.221Z,99361.88
2022-08-22T20:07:14.885Z,99354.88
2022-08-22T20:10:01.611Z,99362.69
2022-08-22T20:12:29.255Z,99364.38
2022-08-22T20:14:57.482Z,99365.38
2022-08-22T20:17:25.181Z,99359.88
2022-08-22T20:20:24.053Z,99356.16
2022-08-22T20:22:59.701Z,99360.78
2022-08-22T20:25:44.185Z,99349.31
2022-08-22T20:28:34.111Z,99353.72
2022-08-22T20:31:07.632Z,99359.97
2022-08-22T20:33:38.882Z,99360.13
2022-08-22T20:36:16.638Z,99358.34
2022-08-22T20:38:58.743Z,99361.75
2022-08-22T20:41:29.028Z,99356.50
2022-08-22T20:44:12.618Z,99356.47
2022-08-22T20:46:46.415Z,99353.91
2022-08-22T20:49:19.901Z,99353.00
2022-08-22T20:52:08.305Z,99344.28
2022-08-22T20:54:38.973Z,99346.03
2022-08-22T20:57:19.463Z,99354.78
2022-08-22T20:59:58.935Z,99361.84
2022-08-22T21:02:39.776Z,99349.59
2022-08-22T21:05:13.535Z,99351.28
2022-08-22T21:07:50.198Z,99346.00
2022-08-22T21:10:46.296Z,99345.97
2022-08-22T21:13:25.628Z,99342.50
2022-08-22T21:16:02.662Z,99345.16
2022-08-22T21:18:36.497Z,99333.75
2022-08-22T21:21:22.523Z,99342.59
2022-08-22T21:23:55.490Z,99333.75
2022-08-22T21:26:31.553Z,99334.56
2022-08-22T21:29:07.249Z,99340.69
2022-08-22T21:31:41.927Z,99336.44
2022-08-22T21:34:28.883Z,99332.09
2022-08-22T21:37:00.418Z,99332.00
2022-08-22T21:39:59.052Z,99331.16
2022-08-22T21:42:35.097Z,99327.63
2022-08-22T21:45:08.012Z,99332.94
2022-08-22T21:47:41.150Z,99339.03
2022-08-22T21:50:20.571Z,99333.81
2022-08-22T21:52:54.169Z,99334.66
2022-08-22T21:55:35.104Z,99334.69
2022-08-22T21:58:35.175Z,99337.22
2022-08-22T22:01:31.503Z,99343.38
2022-08-22T22:03:59.788Z,99346.13
2022-08-22T22:06:27.340Z,99346.09
2022-08-22T22:08:55.211Z,99345.19
2022-08-22T22:11:22.940Z,99353.09
2022-08-22T22:13:50.326Z,99358.31
2022-08-22T22:16:23.352Z,99374.91
2022-08-22T22:18:51.048Z,99372.38
2022-08-22T22:21:18.535Z,99375.75
2022-08-22T22:23:46.089Z,99377.53
2022-08-22T22:26:13.954Z,99375.81
2022-08-22T22:28:44.479Z,99381.00
2022-08-22T22:31:11.872Z,99376.69
2022-08-22T22:33:42.396Z,99385.41
2022-08-22T22:36:24.792Z,99385.34
2022-08-22T22:38:53.390Z,99387.03
2022-08-22T22:41:25.303Z,99391.59
2022-08-22T22:43:54.191Z,99385.44
2022-08-22T22:46:22.563Z,99387.19
2022-08-22T22:48:50.261Z,99388.12
2022-08-22T22:51:17.979Z,99388.69
2022-08-22T22:53:46.044Z,99389.72
2022-08-22T22:56:18.040Z,99388.81
2022-08-22T22:58:59.289Z,99391.50
2022-08-22T23:01:28.481Z,99386.91
2022-08-22T23:03:58.303Z,99396.59
2022-08-22T23:06:28.485Z,99398.31
2022-08-22T23:08:56.578Z,99402.06
2022-08-22T23:11:26.336Z,99400.38
2022-08-22T23:13:54.074Z,99389.00
2022-08-22T23:16:24.842Z,99395.12
2022-08-22T23:18:52.375Z,99397.75
2022-08-22T23:21:20.958Z,99400.19
2022-08-22T23:23:49.342Z,99397.81
2022-08-22T23:26:17.076Z,99387.16
2022-08-22T23:28:44.951Z,99388.97
2022-08-22T23:31:28.045Z,99395.09
2022-08-22T23:33:56.254Z,99392.50
2022-08-22T23:36:24.556Z,99389.84
2022-08-22T23:38:52.115Z,99398.59
2022-08-22T23:41:21.651Z,99393.41
2022-08-22T23:43:52.139Z,99390.78
2022-08-22T23:46:21.186Z,99387.19
2022-08-22T23:48:49.620Z,99387.00
2022-08-22T23:51:22.909Z,99379.38
2022-08-22T23:53:55.881Z,99389.03
2022-08-22T23:56:32.603Z,99376.75
2022-08-22T23:59:02.103Z,99384.66
